createdAt,value
2023-03-13T00:01:43.270Z,4.93
2023-03-13T00:03:46.719Z,5.00
2023-03-13T00:05:50.903Z,4.20
2023-03-13T00:07:54.269Z,4.38
2023-03-13T00:09:57.729Z,4.93
2023-03-13T00:12:01.350Z,4.00
2023-03-13T00:14:06.445Z,4.78
2023-03-13T00:16:10.945Z,4.80
2023-03-13T00:18:24.848Z,4.93
2023-03-13T00:20:28.418Z,4.15
2023-03-13T00:22:31.934Z,4.90
2023-03-13T00:24:35.406Z,4.60
2023-03-13T00:26:38.852Z,5.03
2023-03-13T00:28:43.229Z,4.47
2023-03-13T00:30:48.895Z,4.10
2023-03-13T00:32:52.792Z,4.78
2023-03-13T00:34:56.243Z,4.83
2023-03-13T00:36:59.708Z,4.90
2023-03-13T00:39:03.160Z,5.25
2023-03-13T00:41:07.596Z,4.60
2023-03-13T00:43:10.931Z,4.75
2023-03-13T00:45:17.453Z,5.03
2023-03-13T00:47:22.357Z,5.38
2023-03-13T00:49:25.708Z,4.70
2023-03-13T00:51:29.139Z,5.38
2023-03-13T00:54:22.606Z,4.30
2023-03-13T00:56:25.941Z,4.95
2023-03-13T00:58:30.499Z,4.47
2023-03-13T01:00:34.012Z,4.47
2023-03-13T01:02:42.389Z,5.07
2023-03-13T01:04:45.801Z,4.85
2023-03-13T01:07:16.268Z,4.82
2023-03-13T01:09:20.903Z,5.35
2023-03-13T01:11:25.278Z,4.18
2023-03-13T01:13:29.375Z,4.95
2023-03-13T01:19:01.747Z,4.28
2023-03-13T01:21:05.427Z,4.60
2023-03-13T01:23:08.982Z,5.35
2023-03-13T01:25:13.589Z,4.38
2023-03-13T01:27:19.360Z,5.43
2023-03-13T01:29:22.886Z,4.43
2023-03-13T01:31:27.388Z,5.15
2023-03-13T01:33:30.846Z,4.78
2023-03-13T01:35:35.746Z,5.15
2023-03-13T01:37:49.245Z,5.43
2023-03-13T01:43:26.427Z,3.90
2023-03-13T01:45:56.610Z,4.32
2023-03-13T01:47:59.905Z,5.10
2023-03-13T01:50:28.603Z,4.88
2023-03-13T01:52:33.627Z,4.90
2023-03-13T01:54:38.634Z,4.50
2023-03-13T01:56:44.160Z,4.90
2023-03-13T01:58:47.526Z,4.85
2023-03-13T02:00:50.981Z,4.65
2023-03-13T02:02:56.910Z,4.45
2023-03-13T02:05:49.973Z,4.80
2023-03-13T02:07:56.278Z,5.20
2023-03-13T02:09:59.657Z,5.20
2023-03-13T02:12:06.751Z,5.68
2023-03-13T02:14:10.656Z,5.07
2023-03-13T02:16:14.017Z,4.88
2023-03-13T02:18:17.737Z,5.05
2023-03-13T02:20:22.427Z,4.57
2023-03-13T02:22:28.060Z,4.85
2023-03-13T02:24:41.669Z,5.13
2023-03-13T02:32:57.758Z,4.68
2023-03-13T02:35:05.884Z,4.95
2023-03-13T02:37:10.975Z,5.63
2023-03-13T02:39:43.859Z,4.97
2023-03-13T02:41:47.580Z,4.82
2023-03-13T02:43:51.235Z,4.43
2023-03-13T02:46:05.089Z,4.53
2023-03-13T02:48:13.552Z,4.68
2023-03-13T02:50:17.422Z,4.13
2023-03-13T02:52:23.938Z,4.95
2023-03-13T02:54:29.887Z,4.55
2023-03-13T02:56:35.066Z,4.60
2023-03-13T02:58:49.804Z,4.35
2023-03-13T03:00:54.189Z,5.45
2023-03-13T03:02:57.627Z,4.25
2023-03-13T03:05:02.819Z,4.90
2023-03-13T03:07:19.558Z,5.28
2023-03-13T03:09:23.306Z,4.28
2023-03-13T03:11:26.676Z,4.68
2023-03-13T03:13:30.058Z,4.50
2023-03-13T03:15:33.507Z,5.25
2023-03-13T03:17:41.870Z,4.53
2023-03-13T03:19:45.270Z,4.50
2023-03-13T03:21:50.855Z,4.13
2023-03-13T03:24:25.427Z,4.80
2023-03-13T03:26:28.608Z,4.72
2023-03-13T03:28:32.096Z,4.30
2023-03-13T03:30:35.543Z,4.47
2023-03-13T03:32:39.200Z,4.40
2023-03-13T03:34:42.789Z,4.78
2023-03-13T03:41:08.608Z,4.18
2023-03-13T03:43:11.994Z,4.65
2023-03-13T03:45:29.201Z,4.93
2023-03-13T03:47:33.262Z,4.80
2023-03-13T03:49:37.234Z,4.68
2023-03-13T03:51:40.863Z,4.22
2023-03-13T03:53:44.176Z,4.82
2023-03-13T03:55:47.681Z,5.13
2023-03-13T03:57:52.513Z,4.57
2023-03-13T04:02:06.431Z,4.00
2023-03-13T04:04:10.019Z,4.60
2023-03-13T04:06:13.349Z,4.32
2023-03-13T04:08:20.635Z,5.32
2023-03-13T04:10:23.987Z,4.15
2023-03-13T04:12:27.446Z,4.80
2023-03-13T04:14:32.308Z,5.25
2023-03-13T04:16:35.646Z,5.50
2023-03-13T04:18:39.015Z,5.15
2023-03-13T04:20:42.394Z,4.93
2023-03-13T04:26:01.468Z,4.97
2023-03-13T04:28:04.783Z,4.65
2023-03-13T04:30:11.246Z,4.45
2023-03-13T04:32:14.466Z,4.18
2023-03-13T04:34:18.253Z,4.35
2023-03-13T04:36:21.750Z,4.82
2023-03-13T04:39:21.589Z,4.50
2023-03-13T04:41:25.058Z,4.70
2023-03-13T04:43:28.501Z,4.32
2023-03-13T04:45:33.464Z,4.47
2023-03-13T04:47:36.751Z,4.18
2023-03-13T04:49:39.948Z,4.63
2023-03-13T04:51:43.509Z,4.65
2023-03-13T04:53:59.017Z,4.80
2023-03-13T04:56:02.533Z,4.15
2023-03-13T04:58:06.094Z,4.03
2023-03-13T05:00:11.655Z,4.40
2023-03-13T05:02:16.462Z,4.35
2023-03-13T05:04:19.954Z,4.72
2023-03-13T05:06:23.551Z,3.95
2023-03-13T05:08:27.060Z,4.50
2023-03-13T05:10:30.741Z,4.65
2023-03-13T05:12:34.148Z,5.38
2023-03-13T05:14:37.861Z,4.20
2023-03-13T05:16:41.368Z,4.45
2023-03-13T05:18:46.557Z,4.50
2023-03-13T05:20:54.464Z,3.75
2023-03-13T05:22:58.279Z,4.18
2023-03-13T05:25:01.856Z,3.97
2023-03-13T05:27:05.658Z,3.70
2023-03-13T05:29:10.326Z,3.88
2023-03-13T05:31:14.205Z,3.40
2023-03-13T05:33:19.425Z,3.50
2023-03-13T05:35:42.652Z,3.28
2023-03-13T05:37:46.856Z,3.05
2023-03-13T05:39:50.332Z,3.30
2023-03-13T05:41:53.935Z,3.30
2023-03-13T05:43:57.672Z,2.75
2023-03-13T05:46:07.150Z,3.38
2023-03-13T05:48:10.572Z,3.00
2023-03-13T05:50:18.900Z,3.28
2023-03-13T05:52:24.583Z,2.75
2023-03-13T05:54:53.337Z,3.40
2023-03-13T05:56:56.892Z,3.17
2023-03-13T05:59:00.413Z,2.97
2023-03-13T06:01:08.723Z,2.50
2023-03-13T06:03:14.274Z,2.53
2023-03-13T06:05:25.727Z,3.33
2023-03-13T06:07:50.568Z,3.25
2023-03-13T06:09:54.074Z,2.80
2023-03-13T06:11:57.733Z,2.50
2023-03-13T06:14:02.479Z,2.45
2023-03-13T06:16:18.545Z,3.00
2023-03-13T06:18:22.351Z,2.92
2023-03-13T06:20:26.086Z,2.50
2023-03-13T06:22:39.599Z,2.80
2023-03-13T06:24:53.413Z,2.90
2023-03-13T06:30:26.522Z,2.97
2023-03-13T06:32:31.408Z,2.80
2023-03-13T06:34:48.101Z,3.17
2023-03-13T06:41:29.208Z,3.13
2023-03-13T06:43:58.773Z,2.72
2023-03-13T06:46:09.795Z,2.67
2023-03-13T06:48:14.383Z,2.80
2023-03-13T06:50:30.785Z,2.60
2023-03-13T06:52:43.404Z,2.47
2023-03-13T06:54:49.016Z,2.72
2023-03-13T06:56:52.706Z,3.10
2023-03-13T06:59:18.105Z,2.75
2023-03-13T07:01:22.095Z,2.67
2023-03-13T07:03:25.803Z,2.78
2023-03-13T07:05:29.395Z,3.03
2023-03-13T07:07:34.055Z,2.60
2023-03-13T07:09:37.473Z,2.78
2023-03-13T07:11:42.710Z,3.00
2023-03-13T07:13:46.949Z,3.33
2023-03-13T07:16:07.815Z,2.58
2023-03-13T07:18:11.963Z,2.90
2023-03-13T07:20:17.659Z,2.78
2023-03-13T07:22:22.114Z,2.58
2023-03-13T07:24:25.954Z,2.38
2023-03-13T07:26:29.572Z,2.40
2023-03-13T07:28:37.558Z,2.40
2023-03-13T07:30:41.244Z,2.60
2023-03-13T07:32:44.732Z,2.50
2023-03-13T07:34:48.420Z,2.60
2023-03-13T07:36:51.951Z,2.17
2023-03-13T07:38:55.946Z,2.50
2023-03-13T07:41:00.178Z,2.47
2023-03-13T07:43:04.469Z,2.10
2023-03-13T07:45:12.130Z,2.38
2023-03-13T07:47:16.801Z,2.42
2023-03-13T07:49:20.389Z,2.42
2023-03-13T07:51:36.928Z,2.40
2023-03-13T07:53:44.372Z,2.28
2023-03-13T07:55:53.965Z,2.55
2023-03-13T07:57:57.427Z,2.33
2023-03-13T08:00:01.292Z,2.47
2023-03-13T08:02:06.599Z,2.33
2023-03-13T08:04:11.423Z,2.60
2023-03-13T08:06:17.086Z,2.67
2023-03-13T08:08:20.630Z,2.25
2023-03-13T08:10:41.831Z,2.15
2023-03-13T08:12:47.983Z,2.30
2023-03-13T08:14:51.605Z,2.40
2023-03-13T08:16:56.044Z,2.00
2023-03-13T08:19:01.226Z,1.90
2023-03-13T08:21:07.720Z,1.98
2023-03-13T08:23:11.217Z,2.17
2023-03-13T08:25:15.126Z,1.90
2023-03-13T08:27:18.656Z,1.67
2023-03-13T08:29:22.185Z,2.00
2023-03-13T08:31:26.492Z,1.70
2023-03-13T08:33:30.046Z,1.83
2023-03-13T08:35:35.066Z,1.77
2023-03-13T08:37:38.518Z,2.08
2023-03-13T08:39:41.908Z,1.58
2023-03-13T08:41:45.582Z,2.00
2023-03-13T08:43:55.742Z,2.00
2023-03-13T08:45:59.102Z,1.95
2023-03-13T08:48:02.629Z,2.08
2023-03-13T08:50:06.858Z,1.88
2023-03-13T08:52:11.791Z,1.88
2023-03-13T08:57:39.406Z,1.90
2023-03-13T08:59:42.953Z,2.00
2023-03-13T09:01:46.968Z,2.78
2023-03-13T09:03:50.826Z,2.47
2023-03-13T09:05:56.420Z,2.60
2023-03-13T09:08:01.790Z,2.20
2023-03-13T09:10:06.071Z,2.42
2023-03-13T09:12:24.578Z,2.47
2023-03-13T09:14:32.200Z,2.65
2023-03-13T09:16:36.072Z,1.98
2023-03-13T09:18:39.816Z,2.47
2023-03-13T09:20:47.088Z,2.65
2023-03-13T09:22:51.812Z,2.50
2023-03-13T09:24:56.806Z,2.63
2023-03-13T09:27:01.697Z,2.78
2023-03-13T09:29:05.390Z,2.63
2023-03-13T09:31:10.188Z,2.47
2023-03-13T09:33:14.188Z,2.60
2023-03-13T09:35:21.255Z,2.47
2023-03-13T09:37:24.926Z,2.60
2023-03-13T09:39:30.949Z,2.70
2023-03-13T09:41:37.855Z,2.33
2023-03-13T09:43:44.602Z,2.65
2023-03-13T09:45:49.017Z,2.50
2023-03-13T09:47:53.819Z,1.70
2023-03-13T09:49:59.562Z,2.38
2023-03-13T09:52:07.190Z,2.20
2023-03-13T09:54:19.007Z,2.25
2023-03-13T09:56:24.971Z,2.33
2023-03-13T09:58:30.443Z,1.85
2023-03-13T10:00:37.720Z,2.05
2023-03-13T10:02:46.520Z,2.42
2023-03-13T10:04:51.689Z,2.40
2023-03-13T10:07:01.748Z,2.42
2023-03-13T10:09:07.164Z,2.20
2023-03-13T10:11:12.766Z,2.30
2023-03-13T10:13:19.734Z,2.33
2023-03-13T10:15:40.728Z,2.67
2023-03-13T10:17:44.306Z,2.50
2023-03-13T10:19:48.569Z,3.15
2023-03-13T10:21:53.652Z,2.38
2023-03-13T10:23:59.176Z,2.58
2023-03-13T10:26:02.819Z,2.65
2023-03-13T10:28:06.687Z,2.88
2023-03-13T10:30:12.624Z,2.65
2023-03-13T10:32:21.278Z,3.33
2023-03-13T10:34:25.159Z,2.88
2023-03-13T10:36:28.985Z,2.88
2023-03-13T10:38:34.486Z,3.22
2023-03-13T10:40:38.548Z,2.97
2023-03-13T10:42:45.010Z,2.97
2023-03-13T10:44:48.568Z,2.65
2023-03-13T10:47:01.983Z,3.30
2023-03-13T10:49:13.084Z,2.97
2023-03-13T10:51:22.822Z,2.85
2023-03-13T10:53:34.146Z,2.58
2023-03-13T10:55:37.740Z,3.08
2023-03-13T10:57:41.755Z,2.60
2023-03-13T10:59:46.627Z,2.90
2023-03-13T11:02:02.660Z,3.38
2023-03-13T11:04:21.223Z,2.67
2023-03-13T11:06:31.905Z,2.67
2023-03-13T11:08:39.339Z,2.75
2023-03-13T11:11:02.341Z,3.05
2023-03-13T11:13:06.037Z,2.35
2023-03-13T11:15:14.806Z,3.05
2023-03-13T11:17:23.298Z,2.72
2023-03-13T11:19:51.439Z,2.83
2023-03-13T11:22:02.372Z,2.80
2023-03-13T11:24:08.778Z,2.90
2023-03-13T11:26:15.678Z,3.10
2023-03-13T11:28:29.987Z,3.03
2023-03-13T11:30:54.155Z,3.92
2023-03-13T11:32:58.412Z,3.33
2023-03-13T11:35:05.199Z,3.20
2023-03-13T11:37:11.880Z,2.97
2023-03-13T11:39:35.317Z,3.08
2023-03-13T11:41:46.264Z,2.67
2023-03-13T11:43:57.905Z,2.85
2023-03-13T11:46:17.517Z,2.35
2023-03-13T11:48:27.415Z,2.85
2023-03-13T11:50:38.793Z,2.45
2023-03-13T11:52:53.204Z,2.42
2023-03-13T11:55:33.132Z,2.83
2023-03-13T11:57:39.207Z,2.42
2023-03-13T11:59:46.344Z,2.40
2023-03-13T12:01:52.801Z,2.20
2023-03-13T12:03:59.270Z,2.55
2023-03-13T12:06:04.569Z,2.22
2023-03-13T12:08:11.083Z,2.10
2023-03-13T12:10:15.349Z,2.47
2023-03-13T12:12:27.297Z,2.30
2023-03-13T12:14:33.046Z,2.75
2023-03-13T12:16:41.983Z,2.03
2023-03-13T12:18:46.123Z,2.22
2023-03-13T12:20:56.221Z,2.35
2023-03-13T12:23:05.929Z,2.45
2023-03-13T12:25:13.994Z,2.30
2023-03-13T12:27:19.697Z,2.33
2023-03-13T12:29:29.511Z,2.20
2023-03-13T12:31:35.203Z,2.15
2023-03-13T12:33:41.674Z,2.30
2023-03-13T12:35:47.327Z,2.33
2023-03-13T12:37:54.986Z,2.72
2023-03-13T12:40:07.574Z,2.30
2023-03-13T12:42:22.408Z,2.85
2023-03-13T12:44:26.649Z,2.38
2023-03-13T12:46:40.427Z,2.40
2023-03-13T12:48:53.855Z,2.58
2023-03-13T12:51:09.702Z,2.90
2023-03-13T12:53:22.174Z,2.40
2023-03-13T12:55:59.512Z,2.67
2023-03-13T12:58:32.574Z,2.83
2023-03-13T13:00:39.957Z,2.70
2023-03-13T13:02:43.893Z,2.60
2023-03-13T13:04:48.299Z,2.80
2023-03-13T13:06:53.733Z,2.63
2023-03-13T13:09:16.595Z,2.40
2023-03-13T13:11:57.058Z,2.55
2023-03-13T13:14:01.992Z,2.58
2023-03-13T13:16:06.664Z,2.97
2023-03-13T13:18:18.165Z,2.63
2023-03-13T13:20:41.345Z,2.78
2023-03-13T13:22:52.867Z,2.60
2023-03-13T13:24:56.792Z,2.50
2023-03-13T13:27:00.536Z,2.40
2023-03-13T13:29:46.747Z,2.40
2023-03-13T13:32:01.236Z,2.15
2023-03-13T13:34:04.954Z,2.70
2023-03-13T13:36:31.292Z,2.60
2023-03-13T13:38:40.559Z,2.60
2023-03-13T13:40:45.136Z,2.53
2023-03-13T13:42:50.259Z,2.75
2023-03-13T13:45:05.007Z,2.63
2023-03-13T13:47:23.905Z,2.78
2023-03-13T13:49:34.802Z,2.75
2023-03-13T13:51:38.951Z,2.92
2023-03-13T13:53:44.969Z,2.60
2023-03-13T13:55:48.972Z,2.33
2023-03-13T13:57:52.934Z,2.40
2023-03-13T13:59:58.777Z,2.30
2023-03-13T14:02:24.374Z,2.40
2023-03-13T14:04:30.410Z,2.38
2023-03-13T14:06:35.802Z,2.50
2023-03-13T14:08:40.687Z,2.38
2023-03-13T14:10:46.167Z,2.38
2023-03-13T14:12:52.794Z,2.67
2023-03-13T14:15:23.670Z,2.70
2023-03-13T14:17:29.232Z,2.47
2023-03-13T14:19:41.668Z,2.33
2023-03-13T14:21:45.546Z,2.58
2023-03-13T14:23:49.870Z,2.28
2023-03-13T14:25:53.725Z,2.50
2023-03-13T14:27:57.751Z,2.70
2023-03-13T14:30:05.254Z,2.88
2023-03-13T14:32:10.192Z,2.60
2023-03-13T14:34:15.392Z,2.53
2023-03-13T14:36:19.221Z,2.45
2023-03-13T14:38:23.588Z,3.05
2023-03-13T14:40:27.998Z,2.75
2023-03-13T14:42:33.555Z,2.88
2023-03-13T14:44:37.276Z,2.90
2023-03-13T14:46:43.534Z,2.78
2023-03-13T14:48:47.518Z,2.60
2023-03-13T14:51:05.451Z,2.70
2023-03-13T14:53:19.946Z,2.70
2023-03-13T14:55:33.309Z,2.50
2023-03-13T14:57:37.041Z,3.33
2023-03-13T14:59:41.046Z,3.55
2023-03-13T15:01:44.835Z,3.78
2023-03-13T15:03:48.802Z,3.00
2023-03-13T15:06:05.348Z,3.38
2023-03-13T15:08:14.060Z,2.92
2023-03-13T15:10:21.570Z,3.30
2023-03-13T15:12:25.714Z,1.52
2023-03-13T15:14:37.233Z,2.00
2023-03-13T15:16:40.927Z,1.10
2023-03-13T15:18:44.704Z,0.70
2023-03-13T15:20:51.605Z,1.02
2023-03-13T15:22:56.576Z,1.05
2023-03-13T15:25:06.720Z,0.80
2023-03-13T15:27:17.655Z,1.00
2023-03-13T15:29:21.557Z,0.70
2023-03-13T15:31:27.239Z,0.60
2023-03-13T15:33:31.874Z,1.00
2023-03-13T15:35:35.952Z,0.77
2023-03-13T15:37:39.684Z,1.20
2023-03-13T15:39:45.738Z,0.90
2023-03-13T15:41:49.497Z,0.82
2023-03-13T15:43:55.618Z,1.10
2023-03-13T15:45:59.444Z,0.98
2023-03-13T15:48:02.955Z,1.00
2023-03-13T15:50:07.959Z,1.05
2023-03-13T15:52:19.108Z,0.85
2023-03-13T15:54:24.250Z,0.90
2023-03-13T15:56:29.940Z,0.75
2023-03-13T15:58:33.798Z,0.70
2023-03-13T16:00:37.600Z,1.63
2023-03-13T16:02:41.358Z,1.30
2023-03-13T16:04:45.603Z,1.00
2023-03-13T16:06:52.643Z,0.68
2023-03-13T16:09:01.849Z,0.98
2023-03-13T16:11:06.054Z,1.20
2023-03-13T16:13:11.578Z,1.20
2023-03-13T16:15:15.123Z,1.45
2023-03-13T16:17:19.495Z,1.15
2023-03-13T16:19:23.251Z,1.40
2023-03-13T16:21:28.054Z,1.45
2023-03-13T16:23:32.015Z,1.30
2023-03-13T16:25:35.752Z,1.63
2023-03-13T16:27:40.091Z,1.65
2023-03-13T16:29:45.313Z,1.60
2023-03-13T16:31:49.025Z,1.77
2023-03-13T16:33:54.110Z,1.60
2023-03-13T16:35:58.064Z,1.40
2023-03-13T16:38:01.906Z,1.73
2023-03-13T16:40:10.709Z,1.70
2023-03-13T16:42:14.682Z,1.60
2023-03-13T16:44:18.522Z,1.65
2023-03-13T16:46:24.906Z,1.55
2023-03-13T16:48:28.465Z,1.63
2023-03-13T16:50:34.284Z,1.80
2023-03-13T16:52:37.585Z,1.70
2023-03-13T16:54:41.702Z,1.60
2023-03-13T16:56:45.304Z,1.60
2023-03-13T16:58:48.991Z,1.90
2023-03-13T17:01:04.553Z,1.67
2023-03-13T17:03:10.471Z,1.50
2023-03-13T17:05:16.044Z,1.58
2023-03-13T17:07:21.013Z,1.88
2023-03-13T17:09:24.708Z,1.77
2023-03-13T17:11:28.864Z,2.05
2023-03-13T17:13:47.160Z,1.80
2023-03-13T17:15:51.140Z,2.00
2023-03-13T17:17:55.205Z,1.95
2023-03-13T17:20:00.306Z,1.90
2023-03-13T17:22:04.168Z,2.00
2023-03-13T17:24:08.794Z,2.05
2023-03-13T17:26:22.357Z,2.00
2023-03-13T17:28:25.989Z,1.98
2023-03-13T17:30:31.070Z,2.17
2023-03-13T17:32:34.690Z,2.55
2023-03-13T17:34:38.353Z,2.33
2023-03-13T17:36:43.332Z,2.10
2023-03-13T17:38:47.149Z,2.40
2023-03-13T17:40:50.767Z,2.85
2023-03-13T17:42:55.491Z,2.40
2023-03-13T17:44:59.713Z,2.22
2023-03-13T17:47:03.079Z,2.65
2023-03-13T17:49:07.811Z,2.90
2023-03-13T17:51:18.514Z,3.15
2023-03-13T17:53:23.558Z,2.67
2023-03-13T17:55:27.461Z,2.22
2023-03-13T17:57:31.335Z,2.45
2023-03-13T17:59:34.818Z,1.95
2023-03-13T18:01:38.329Z,2.15
2023-03-13T18:03:42.519Z,2.33
2023-03-13T18:05:46.132Z,2.40
2023-03-13T18:07:49.821Z,2.53
2023-03-13T18:09:54.776Z,2.50
2023-03-13T18:12:12.689Z,2.35
2023-03-13T18:14:16.272Z,2.97
2023-03-13T18:16:30.690Z,2.92
2023-03-13T18:18:34.284Z,2.90
2023-03-13T18:20:37.624Z,3.72
2023-03-13T18:22:41.474Z,3.13
2023-03-13T18:24:45.172Z,3.03
2023-03-13T18:26:52.140Z,3.10
2023-03-13T18:29:00.338Z,2.88
2023-03-13T18:31:05.092Z,3.40
2023-03-13T18:33:48.194Z,3.20
2023-03-13T18:35:59.871Z,3.40
2023-03-13T18:38:04.483Z,3.03
2023-03-13T18:40:16.461Z,2.85
2023-03-13T18:42:21.815Z,3.38
2023-03-13T18:46:27.352Z,3.10
2023-03-13T18:48:31.929Z,3.33
2023-03-13T18:50:35.606Z,3.33
2023-03-13T18:52:40.450Z,3.63
2023-03-13T18:54:44.721Z,3.55
2023-03-13T18:56:48.585Z,3.42
2023-03-13T18:58:54.536Z,3.67
2023-03-13T19:00:58.114Z,3.92
2023-03-13T19:03:02.086Z,3.90
2023-03-13T19:05:06.000Z,3.60
2023-03-13T19:07:16.463Z,3.83
2023-03-13T19:09:42.145Z,3.00
2023-03-13T19:11:44.108Z,3.80
2023-03-13T19:14:19.668Z,3.28
2023-03-13T19:16:28.608Z,3.03
2023-03-13T19:18:36.933Z,3.38
2023-03-13T19:20:49.686Z,3.10
2023-03-13T19:22:55.178Z,2.70
2023-03-13T19:24:59.624Z,3.25
2023-03-13T19:27:02.866Z,2.70
2023-03-13T19:29:11.155Z,3.50
2023-03-13T19:31:15.926Z,3.45
2023-03-13T19:33:20.324Z,3.22
2023-03-13T19:35:23.838Z,3.22
2023-03-13T19:37:33.579Z,3.20
2023-03-13T19:39:36.887Z,2.33
2023-03-13T19:41:43.214Z,2.75
2023-03-13T19:43:47.985Z,2.50
2023-03-13T19:45:53.428Z,2.47
2023-03-13T19:47:56.851Z,2.38
2023-03-13T19:50:02.655Z,2.53
2023-03-13T19:52:07.231Z,2.20
2023-03-13T19:54:11.636Z,2.00
2023-03-13T19:56:17.896Z,1.90
2023-03-13T19:58:21.528Z,1.90
2023-03-13T20:00:25.981Z,1.45
2023-03-13T20:02:31.055Z,1.60
2023-03-13T20:04:34.578Z,1.50
2023-03-13T20:06:39.734Z,1.50
2023-03-13T20:08:43.432Z,1.40
2023-03-13T20:10:54.734Z,1.48
2023-03-13T20:12:58.006Z,1.48
2023-03-13T20:15:01.526Z,1.40
2023-03-13T20:17:05.714Z,1.23
2023-03-13T20:19:10.796Z,1.52
2023-03-13T20:21:14.728Z,1.33
2023-03-13T20:27:40.096Z,1.27
2023-03-13T20:29:44.860Z,1.38
2023-03-13T20:31:48.699Z,1.25
2023-03-13T20:33:54.666Z,1.30
2023-03-13T20:36:02.620Z,1.00
2023-03-13T20:38:06.273Z,1.35
2023-03-13T20:40:10.968Z,1.50
2023-03-13T20:42:15.630Z,1.40
2023-03-13T20:44:29.366Z,1.50
2023-03-13T20:46:32.967Z,1.15
2023-03-13T20:48:42.663Z,1.10
2023-03-13T20:50:46.235Z,1.33
2023-03-13T20:52:53.981Z,1.40
2023-03-13T20:54:57.457Z,1.10
2023-03-13T20:57:02.425Z,1.50
2023-03-13T20:59:06.092Z,1.05
2023-03-13T21:01:09.854Z,1.40
2023-03-13T21:03:19.732Z,1.10
2023-03-13T21:05:23.282Z,1.17
2023-03-13T21:07:26.978Z,1.10
2023-03-13T21:09:32.362Z,1.50
2023-03-13T21:11:37.593Z,1.33
2023-03-13T21:13:41.068Z,1.25
2023-03-13T21:15:44.660Z,1.30
2023-03-13T21:18:01.856Z,1.55
2023-03-13T21:20:09.014Z,1.60
2023-03-13T21:22:12.901Z,1.85
2023-03-13T21:24:19.097Z,1.70
2023-03-13T21:26:45.016Z,1.88
2023-03-13T21:28:48.487Z,1.42
2023-03-13T21:30:52.838Z,1.70
2023-03-13T21:32:56.682Z,1.50
2023-03-13T21:35:00.028Z,1.40
2023-03-13T21:37:03.578Z,1.92
2023-03-13T21:39:08.510Z,1.70
2023-03-13T21:41:14.187Z,1.60
2023-03-13T21:43:18.973Z,1.80
2023-03-13T21:45:22.348Z,1.80
2023-03-13T21:47:25.770Z,1.50
2023-03-13T21:49:31.157Z,1.75
2023-03-13T21:51:34.998Z,1.48
2023-03-13T21:53:38.477Z,1.52
2023-03-13T21:55:42.258Z,1.55
2023-03-13T21:57:45.798Z,1.73
2023-03-13T21:59:50.614Z,1.40
2023-03-13T22:01:54.971Z,1.02
2023-03-13T22:03:58.627Z,1.63
2023-03-13T22:06:01.977Z,1.40
2023-03-13T22:08:06.855Z,1.45
2023-03-13T22:10:11.657Z,1.40
2023-03-13T22:12:15.069Z,1.13
2023-03-13T22:14:18.935Z,1.52
2023-03-13T22:16:25.546Z,1.33
2023-03-13T22:18:29.098Z,1.30
2023-03-13T22:20:32.633Z,1.30
2023-03-13T22:22:36.309Z,1.40
2023-03-13T22:24:40.048Z,1.33
2023-03-13T22:26:43.533Z,1.30
2023-03-13T22:28:47.150Z,1.40
2023-03-13T22:30:50.850Z,1.02
2023-03-13T22:32:55.958Z,1.65
2023-03-13T22:34:59.651Z,0.98
2023-03-13T22:37:03.630Z,1.35
2023-03-13T22:39:30.304Z,1.20
2023-03-13T22:41:33.925Z,1.00
2023-03-13T22:43:37.444Z,1.35
2023-03-13T22:45:41.170Z,1.50
2023-03-13T22:47:44.653Z,1.00
2023-03-13T22:50:28.064Z,1.38
2023-03-13T22:52:33.517Z,1.40
2023-03-13T22:54:37.138Z,1.20
2023-03-13T22:56:40.994Z,1.38
2023-03-13T22:58:49.780Z,1.20
2023-03-13T23:00:53.248Z,1.10
2023-03-13T23:02:56.961Z,1.20
2023-03-13T23:05:01.468Z,0.93
2023-03-13T23:07:04.943Z,1.08
2023-03-13T23:09:09.853Z,1.42
2023-03-13T23:11:13.518Z,1.05
2023-03-13T23:13:18.303Z,1.08
2023-03-13T23:15:22.619Z,0.85
2023-03-13T23:17:32.501Z,1.10
2023-03-13T23:19:36.356Z,1.13
2023-03-13T23:21:39.757Z,1.00
2023-03-13T23:23:43.334Z,0.95
2023-03-13T23:25:48.231Z,0.98
2023-03-13T23:27:51.816Z,1.02
2023-03-13T23:29:56.214Z,1.08
2023-03-13T23:31:59.528Z,1.10
2023-03-13T23:34:03.062Z,1.23
2023-03-13T23:36:24.966Z,1.30
2023-03-13T23:38:28.465Z,1.15
2023-03-13T23:40:32.799Z,1.33
2023-03-13T23:42:37.472Z,1.33
2023-03-13T23:44:40.924Z,1.20
2023-03-13T23:46:44.403Z,1.13
2023-03-13T23:52:13.401Z,1.20
2023-03-13T23:54:16.737Z,1.30
2023-03-13T23:56:20.211Z,1.88
2023-03-13T23:58:25.011Z,1.40
